Time;durP1;ratioP1;P1;durP2;ratioP2;P2;SDS_P1;SDS_P2;PMS_P1;PMS_P2;Temp;Humidity;BMP_temperature;BMP_pressure;BME280_temperature;BME280_humidity;BME280_pressure;Samples;Min_cycle;Max_cycle;Signal;HPM_P1;HPM_P2
2022/05/09 05:40:44;;;;;;;15.38;6.90;;;;;;;;;;5068383;28;20914;-60
2022/05/09 05:43:12;;;;;;;16.65;9.68;;;;;;;;;;5068446;28;20030;-62
2022/05/09 05:45:38;;;;;;;13.38;6.40;;;;;;;;;;5068001;28;20033;-61
2022/05/09 05:48:04;;;;;;;11.77;4.65;;;;;;;;;;5065639;28;20025;-61
2022/05/09 05:50:30;;;;;;;12.65;4.50;;;;;;;;;;5060271;28;20040;-61
2022/05/09 05:52:56;;;;;;;11.57;4.25;;;;;;;;;;5048238;28;20075;-61
2022/05/09 05:55:22;;;;;;;9.50;4.22;;;;;;;;;;5047950;28;20377;-63
2022/05/09 05:57:48;;;;;;;9.88;3.88;;;;;;;;;;5047882;28;20326;-62
2022/05/09 06:00:19;;;;;;;7.00;3.15;;;;;;;;;;5047664;28;20484;-63
2022/05/09 06:02:45;;;;;;;7.53;3.25;;;;;;;;;;5047558;28;20021;-61
2022/05/09 06:05:12;;;;;;;12.30;3.90;;;;;;;;;;5057783;28;20104;-66
2022/05/09 06:07:39;;;;;;;12.57;4.85;;;;;;;;;;5067333;28;20491;-62
2022/05/09 06:10:05;;;;;;;11.75;4.90;;;;;;;;;;5054869;28;20064;-65
2022/05/09 06:12:31;;;;;;;15.02;5.00;;;;;;;;;;5057283;28;20035;-63
2022/05/09 06:17:42;;;;;;;15.13;5.95;;;;;;;;;;5056159;28;20079;-62
2022/05/09 06:20:09;;;;;;;20.08;5.60;;;;;;;;;;5056407;28;20098;-62
2022/05/09 06:22:39;;;;;;;14.75;5.10;;;;;;;;;;5055689;28;20037;-64
2022/05/09 06:25:06;;;;;;;13.35;4.82;;;;;;;;;;5056968;28;20029;-63
2022/05/09 06:27:32;;;;;;;17.10;5.05;;;;;;;;;;5055081;28;20021;-66
2022/05/09 06:30:01;;;;;;;12.15;5.63;;;;;;;;;;5056551;28;20032;-63
2022/05/09 06:32:28;;;;;;;11.52;5.05;;;;;;;;;;5055502;28;20036;-64
2022/05/09 06:34:54;;;;;;;12.02;5.07;;;;;;;;;;5055058;28;20057;-64
2022/05/09 06:37:20;;;;;;;18.70;5.03;;;;;;;;;;5055885;28;20389;-62
2022/05/09 06:39:46;;;;;;;15.75;5.30;;;;;;;;;;5056249;28;20429;-62
2022/05/09 06:42:12;;;;;;;10.23;4.20;;;;;;;;;;5048730;28;20429;-65
2022/05/09 06:44:38;;;;;;;9.07;4.47;;;;;;;;;;5046936;28;20090;-62
2022/05/09 06:47:05;;;;;;;17.25;5.28;;;;;;;;;;5056603;28;20503;-63
2022/05/09 06:49:31;;;;;;;10.77;4.82;;;;;;;;;;5056483;28;20036;-63
2022/05/09 06:51:58;;;;;;;12.75;4.50;;;;;;;;;;5041793;28;20026;-61
2022/05/09 06:54:24;;;;;;;9.15;4.60;;;;;;;;;;5040556;28;20128;-62
2022/05/09 06:56:51;;;;;;;14.80;5.13;;;;;;;;;;5041304;28;20120;-62
2022/05/09 06:59:19;;;;;;;17.95;5.40;;;;;;;;;;5039885;28;20436;-61
2022/05/09 07:01:46;;;;;;;11.82;5.05;;;;;;;;;;5039637;28;20104;-61
2022/05/09 07:04:12;;;;;;;12.13;4.75;;;;;;;;;;5033680;28;20035;-63
2022/05/09 07:06:38;;;;;;;12.10;4.30;;;;;;;;;;5033517;28;20048;-63
2022/05/09 07:09:07;;;;;;;13.35;4.43;;;;;;;;;;5033418;28;20052;-62
2022/05/09 07:11:33;;;;;;;16.38;5.45;;;;;;;;;;5033139;28;20492;-63
2022/05/09 07:14:00;;;;;;;13.10;4.30;;;;;;;;;;5033504;28;20112;-63
2022/05/09 07:16:26;;;;;;;11.20;4.68;;;;;;;;;;5032718;28;20025;-64
2022/05/09 07:18:52;;;;;;;13.25;4.57;;;;;;;;;;5033285;28;20388;-62
2022/05/09 07:21:19;;;;;;;9.27;4.47;;;;;;;;;;5031495;28;20086;-62
2022/05/09 07:23:45;;;;;;;10.65;4.45;;;;;;;;;;5032539;28;20018;-63
2022/05/09 07:26:11;;;;;;;12.85;4.10;;;;;;;;;;5032507;28;20029;-64
2022/05/09 07:28:38;;;;;;;10.35;4.35;;;;;;;;;;5032524;28;20397;-61
2022/05/09 07:31:04;;;;;;;15.35;4.70;;;;;;;;;;5032936;28;20512;-62
2022/05/09 07:33:31;;;;;;;9.68;4.72;;;;;;;;;;5032088;28;20029;-64
2022/05/09 07:35:57;;;;;;;11.07;4.13;;;;;;;;;;5032043;28;20090;-61
2022/05/09 07:38:23;;;;;;;11.63;4.22;;;;;;;;;;5032092;28;20039;-61
2022/05/09 07:40:50;;;;;;;11.15;4.15;;;;;;;;;;5032911;28;20489;-61
2022/05/09 07:43:17;;;;;;;11.05;4.30;;;;;;;;;;5032308;28;20029;-62
2022/05/09 07:45:44;;;;;;;9.63;4.43;;;;;;;;;;5032476;28;20026;-61
2022/05/09 07:48:10;;;;;;;10.93;4.13;;;;;;;;;;5032264;28;20049;-61
2022/05/09 07:50:37;;;;;;;8.45;3.78;;;;;;;;;;5032508;28;20028;-63
2022/05/09 07:53:09;;;;;;;11.75;3.85;;;;;;;;;;5032273;28;20033;-61
2022/05/09 07:55:35;;;;;;;;;;;;;;;;;;5033099;28;20033;-63
2022/05/09 07:58:01;;;;;;;12.25;3.95;;;;;;;;;;5032393;28;19916;-63
2022/05/09 08:00:27;;;;;;;10.10;3.63;;;;;;;;;;5031622;28;20038;-63
2022/05/09 08:02:54;;;;;;;9.48;4.00;;;;;;;;;;5031062;28;20030;-62
2022/05/09 08:05:20;;;;;;;8.18;3.53;;;;;;;;;;5032303;28;20477;-62
2022/05/09 08:07:46;;;;;;;10.10;4.00;;;;;;;;;;5031835;28;20029;-64
2022/05/09 08:10:15;;;;;;;8.45;3.92;;;;;;;;;;5031850;28;20033;-61
2022/05/09 08:12:41;;;;;;;11.45;4.00;;;;;;;;;;5031975;28;20025;-64
2022/05/09 08:15:09;;;;;;;10.15;4.28;;;;;;;;;;5031790;28;20156;-63
2022/05/09 08:17:35;;;;;;;8.43;4.25;;;;;;;;;;5031896;28;20029;-62
2022/05/09 08:20:01;;;;;;;10.75;4.70;;;;;;;;;;5032057;28;20034;-63
2022/05/09 08:22:31;;;;;;;8.85;4.38;;;;;;;;;;5039021;28;20056;-62
2022/05/09 08:24:58;;;;;;;10.27;3.90;;;;;;;;;;5033871;28;20025;-62
2022/05/09 08:27:24;;;;;;;9.98;4.20;;;;;;;;;;5050411;28;20039;-62
2022/05/09 08:29:54;;;;;;;14.05;4.95;;;;;;;;;;5051515;28;20104;-63
2022/05/09 08:32:20;;;;;;;13.88;4.68;;;;;;;;;;5051568;28;20017;-63
2022/05/09 08:34:46;;;;;;;11.95;5.18;;;;;;;;;;5051412;28;20032;-64
2022/05/09 08:37:14;;;;;;;7.50;3.67;;;;;;;;;;5051304;28;20017;-64
2022/05/09 08:39:40;;;;;;;11.63;4.75;;;;;;;;;;5044661;28;20152;-65
2022/05/09 08:42:08;;;;;;;14.05;4.43;;;;;;;;;;5031189;28;20520;-63
2022/05/09 08:44:52;;;;;;;11.48;4.97;;;;;;;;;;5033598;28;20123;-63
2022/05/09 08:47:38;;;;;;;11.43;4.43;;;;;;;;;;5042761;28;20515;-61
2022/05/09 08:50:04;;;;;;;11.80;4.05;;;;;;;;;;5045253;28;20049;-63
2022/05/09 08:52:42;;;;;;;9.77;4.32;;;;;;;;;;5032412;28;20048;-63
2022/05/09 08:55:09;;;;;;;10.80;4.43;;;;;;;;;;5051405;28;20078;-61
2022/05/09 08:57:56;;;;;;;8.55;4.40;;;;;;;;;;5050911;28;20021;-63
2022/05/09 09:00:23;;;;;;;9.73;4.50;;;;;;;;;;5050333;28;20037;-64
2022/05/09 09:03:15;;;;;;;10.00;4.40;;;;;;;;;;5051037;28;20135;-62
2022/05/09 09:05:44;;;;;;;11.23;4.30;;;;;;;;;;5051286;28;20514;-62
2022/05/09 09:08:15;;;;;;;9.82;4.07;;;;;;;;;;5050580;28;20051;-63
2022/05/09 09:10:44;;;;;;;10.73;4.35;;;;;;;;;;5050420;28;20804;-64
2022/05/09 09:13:10;;;;;;;8.65;4.38;;;;;;;;;;5050853;28;20044;-65
2022/05/09 09:15:51;;;;;;;8.23;3.50;;;;;;;;;;5043040;28;20116;-62
2022/05/09 09:18:27;;;;;;;11.13;4.00;;;;;;;;;;5035981;28;20033;-63
2022/05/09 09:21:00;;;;;;;9.65;3.85;;;;;;;;;;5037754;28;20041;-63
2022/05/09 09:23:38;;;;;;;10.75;3.92;;;;;;;;;;5040867;28;20397;-63
2022/05/09 09:26:08;;;;;;;11.63;3.80;;;;;;;;;;5041077;28;20423;-63
2022/05/09 09:28:46;;;;;;;11.38;4.20;;;;;;;;;;5045719;28;20175;-63
2022/05/09 09:31:13;;;;;;;8.90;4.47;;;;;;;;;;5045818;28;20082;-62
2022/05/09 09:33:43;;;;;;;11.68;4.03;;;;;;;;;;5039060;28;20033;-62
2022/05/09 09:36:12;;;;;;;9.60;4.28;;;;;;;;;;5044708;28;20018;-62
2022/05/09 09:38:40;;;;;;;9.30;3.47;;;;;;;;;;5050230;28;20443;-62
2022/05/09 09:41:25;;;;;;;9.15;3.65;;;;;;;;;;5044487;28;20824;-64
2022/05/09 09:43:58;;;;;;;8.95;3.40;;;;;;;;;;5035584;28;20057;-63
2022/05/09 09:46:24;;;;;;;6.97;3.00;;;;;;;;;;5032091;28;20022;-63
2022/05/09 09:49:07;;;;;;;8.20;4.13;;;;;;;;;;5039023;28;20473;-63
2022/05/09 09:51:43;;;;;;;9.98;3.47;;;;;;;;;;5034032;28;20033;-63
2022/05/09 09:54:09;;;;;;;7.00;3.30;;;;;;;;;;5030251;28;20030;-63
2022/05/09 09:56:36;;;;;;;8.73;3.35;;;;;;;;;;5030734;28;20026;-63
2022/05/09 09:59:11;;;;;;;7.07;3.50;;;;;;;;;;5030516;28;20041;-63
2022/05/09 10:01:37;;;;;;;7.07;3.58;;;;;;;;;;5029514;28;20026;-62
2022/05/09 10:04:09;;;;;;;5.63;2.60;;;;;;;;;;5029819;28;20204;-62
2022/05/09 10:06:36;;;;;;;5.90;3.35;;;;;;;;;;5028691;28;20527;-62
2022/05/09 10:09:06;;;;;;;8.45;2.85;;;;;;;;;;5030365;28;20442;-63
2022/05/09 10:11:33;;;;;;;5.93;2.85;;;;;;;;;;5030253;28;20033;-63
2022/05/09 10:14:03;;;;;;;5.90;2.67;;;;;;;;;;5030218;28;20036;-63
2022/05/09 10:16:48;;;;;;;5.78;2.70;;;;;;;;;;5030281;28;20052;-62
2022/05/09 10:19:30;;;;;;;6.43;2.70;;;;;;;;;;5030030;28;20493;-62
2022/05/09 10:24:48;;;;;;;7.85;2.63;;;;;;;;;;5029907;28;20299;-62
2022/05/09 10:27:23;;;;;;;5.88;2.50;;;;;;;;;;5031824;28;20037;-62
2022/05/09 10:29:50;;;;;;;7.18;3.03;;;;;;;;;;5033713;28;20022;-62
2022/05/09 10:32:26;;;;;;;6.00;2.88;;;;;;;;;;5033691;28;20190;-65
2022/05/09 10:34:56;;;;;;;8.23;2.45;;;;;;;;;;5033695;28;20025;-63
2022/05/09 10:37:25;;;;;;;6.30;2.40;;;;;;;;;;5033732;28;20029;-63
2022/05/09 10:39:59;;;;;;;4.50;2.55;;;;;;;;;;5033741;28;20056;-65
2022/05/09 10:42:33;;;;;;;4.05;2.33;;;;;;;;;;5033087;28;20026;-65
2022/05/09 10:45:06;;;;;;;7.22;2.75;;;;;;;;;;5033196;28;20018;-62
2022/05/09 10:47:44;;;;;;;7.85;2.40;;;;;;;;;;5033909;28;20025;-63
2022/05/09 10:50:31;;;;;;;6.20;2.33;;;;;;;;;;5033395;28;20540;-64
2022/05/09 10:53:15;;;;;;;6.10;2.60;;;;;;;;;;5049541;28;20044;-61
2022/05/09 10:55:47;;;;;;;5.88;2.15;;;;;;;;;;5053650;28;20422;-62
2022/05/09 10:58:34;;;;;;;5.43;2.25;;;;;;;;;;5053346;28;20171;-62
2022/05/09 11:01:08;;;;;;;5.95;2.10;;;;;;;;;;5053354;28;20058;-66
2022/05/09 11:03:35;;;;;;;5.07;2.50;;;;;;;;;;5053572;28;20040;-66
2022/05/09 11:06:19;;;;;;;4.53;2.00;;;;;;;;;;5053637;28;20028;-63
2022/05/09 11:08:48;;;;;;;6.97;2.55;;;;;;;;;;5048985;28;20029;-61
2022/05/09 11:11:34;;;;;;;5.57;2.22;;;;;;;;;;5053140;28;20613;-62
2022/05/09 11:14:03;;;;;;;7.20;2.40;;;;;;;;;;5040559;28;20037;-61
2022/05/09 11:16:53;;;;;;;4.45;2.47;;;;;;;;;;5037429;28;20536;-62
2022/05/09 11:19:29;;;;;;;5.25;2.40;;;;;;;;;;5029679;28;20072;-62
2022/05/09 11:22:00;;;;;;;4.78;2.45;;;;;;;;;;5030544;28;20525;-62
2022/05/09 11:24:37;;;;;;;5.67;2.60;;;;;;;;;;5040299;28;20041;-61
2022/05/09 11:27:04;;;;;;;5.70;2.67;;;;;;;;;;5041409;28;20053;-63
2022/05/09 11:29:48;;;;;;;5.35;2.35;;;;;;;;;;5040347;28;20032;-62
2022/05/09 11:32:36;;;;;;;6.00;2.60;;;;;;;;;;5039194;28;20436;-64
2022/05/09 11:35:08;;;;;;;3.47;2.00;;;;;;;;;;5035369;28;20032;-61
2022/05/09 11:37:53;;;;;;;6.63;2.50;;;;;;;;;;5031179;28;20188;-63
2022/05/09 11:40:26;;;;;;;8.30;2.70;;;;;;;;;;5045005;28;20217;-63
2022/05/09 11:43:28;;;;;;;5.13;2.25;;;;;;;;;;5034796;28;20034;-63
2022/05/09 11:46:15;;;;;;;5.20;2.80;;;;;;;;;;5037774;28;20045;-65
2022/05/09 11:48:44;;;;;;;7.03;2.75;;;;;;;;;;5040585;28;20469;-63
2022/05/09 11:51:29;;;;;;;5.25;2.83;;;;;;;;;;5040632;28;20085;-62
2022/05/09 11:53:58;;;;;;;6.05;2.80;;;;;;;;;;5037940;28;20040;-62
2022/05/09 11:56:24;;;;;;;8.65;3.80;;;;;;;;;;5040037;28;20155;-65
2022/05/09 11:58:51;;;;;;;14.07;5.53;;;;;;;;;;5038499;28;20060;-63
2022/05/09 12:01:17;;;;;;;9.18;3.92;;;;;;;;;;5032632;28;20045;-63
2022/05/09 12:03:43;;;;;;;5.00;2.85;;;;;;;;;;5032665;28;20397;-63
2022/05/09 12:06:14;;;;;;;4.25;2.20;;;;;;;;;;5032267;28;20025;-65
2022/05/09 12:08:42;;;;;;;7.47;2.80;;;;;;;;;;5032122;28;20120;-61
2022/05/09 12:11:18;;;;;;;12.20;4.25;;;;;;;;;;5032171;28;20029;-64
2022/05/09 12:13:44;;;;;;;5.80;2.67;;;;;;;;;;5032142;28;20034;-62
2022/05/09 12:16:10;;;;;;;7.45;3.30;;;;;;;;;;5032019;28;20025;-62
2022/05/09 12:18:54;;;;;;;4.22;2.13;;;;;;;;;;5032352;28;20564;-62
2022/05/09 12:21:32;;;;;;;7.35;2.30;;;;;;;;;;5032415;28;20044;-63
2022/05/09 12:24:10;;;;;;;5.43;2.25;;;;;;;;;;5031750;28;20393;-63
2022/05/09 12:26:38;;;;;;;8.00;2.60;;;;;;;;;;5031926;28;20112;-62
2022/05/09 12:29:07;;;;;;;4.93;2.55;;;;;;;;;;5031652;28;20042;-65
2022/05/09 12:31:42;;;;;;;4.90;2.20;;;;;;;;;;5031715;28;20029;-63
2022/05/09 12:34:09;;;;;;;8.20;3.28;;;;;;;;;;5031712;28;20446;-63
2022/05/09 12:36:37;;;;;;;6.28;2.15;;;;;;;;;;5031633;28;20389;-62
2022/05/09 12:39:11;;;;;;;6.75;3.30;;;;;;;;;;5031395;28;20041;-64
2022/05/09 12:41:55;;;;;;;6.10;2.40;;;;;;;;;;5031553;28;20033;-62
2022/05/09 12:44:24;;;;;;;6.22;2.33;;;;;;;;;;5031709;28;20049;-62
2022/05/09 12:46:50;;;;;;;5.25;2.45;;;;;;;;;;5031636;28;20040;-62
2022/05/09 12:49:17;;;;;;;5.75;2.40;;;;;;;;;;5030959;28;20026;-62
2022/05/09 12:51:48;;;;;;;9.43;3.03;;;;;;;;;;5031421;28;20028;-63
2022/05/09 12:54:16;;;;;;;6.60;2.30;;;;;;;;;;5031223;28;20459;-63
2022/05/09 12:56:47;;;;;;;3.85;2.22;;;;;;;;;;5031229;28;20429;-61
2022/05/09 12:59:14;;;;;;;4.93;2.20;;;;;;;;;;5031341;28;20029;-63
2022/05/09 13:01:45;;;;;;;5.15;2.33;;;;;;;;;;5031154;28;20024;-63
2022/05/09 13:04:20;;;;;;;7.35;2.38;;;;;;;;;;5031321;28;20106;-62
2022/05/09 13:06:48;;;;;;;6.43;2.42;;;;;;;;;;5031011;28;20061;-63
2022/05/09 13:09:24;;;;;;;4.50;2.28;;;;;;;;;;5030590;28;20048;-62
2022/05/09 13:11:52;;;;;;;4.22;2.15;;;;;;;;;;5031098;28;20057;-62
2022/05/09 13:14:22;;;;;;;6.72;2.40;;;;;;;;;;5030600;28;20029;-63
2022/05/09 13:16:53;;;;;;;5.60;2.13;;;;;;;;;;5031175;28;20032;-64
2022/05/09 13:19:20;;;;;;;5.72;2.53;;;;;;;;;;5031046;28;20033;-62
2022/05/09 13:21:48;;;;;;;4.60;2.08;;;;;;;;;;5030341;28;20033;-63
2022/05/09 13:24:16;;;;;;;4.78;2.40;;;;;;;;;;5030644;28;20029;-61
2022/05/09 13:26:50;;;;;;;5.15;2.33;;;;;;;;;;5030706;28;20030;-64
2022/05/09 13:29:28;;;;;;;6.20;2.28;;;;;;;;;;5030575;28;20477;-62
2022/05/09 13:31:56;;;;;;;4.22;1.88;;;;;;;;;;5030573;28;20420;-63
2022/05/09 13:34:30;;;;;;;4.47;1.90;;;;;;;;;;5030446;28;20400;-63
2022/05/09 13:36:56;;;;;;;5.93;2.30;;;;;;;;;;5035370;28;20045;-62
2022/05/09 13:39:28;;;;;;;6.47;2.40;;;;;;;;;;5040332;28;20477;-62
2022/05/09 13:41:55;;;;;;;4.38;2.25;;;;;;;;;;5035604;28;20087;-62
2022/05/09 13:44:22;;;;;;;3.75;2.20;;;;;;;;;;5035765;28;20387;-63
2022/05/09 13:46:49;;;;;;;4.40;2.20;;;;;;;;;;5035612;28;20025;-61
2022/05/09 13:49:17;;;;;;;3.70;2.30;;;;;;;;;;5039609;28;20494;-63
2022/05/09 13:51:51;;;;;;;4.22;2.25;;;;;;;;;;5039034;28;20384;-63
2022/05/09 13:54:21;;;;;;;4.80;2.05;;;;;;;;;;5037891;28;20025;-62
2022/05/09 13:56:47;;;;;;;6.00;2.30;;;;;;;;;;5040143;28;20064;-63
2022/05/09 13:59:14;;;;;;;4.15;2.30;;;;;;;;;;5034472;28;20065;-61
2022/05/09 14:01:48;;;;;;;8.13;2.30;;;;;;;;;;5032338;28;20052;-62
2022/05/09 14:04:16;;;;;;;5.13;2.33;;;;;;;;;;5034300;28;20029;-62
2022/05/09 14:06:44;;;;;;;4.05;2.20;;;;;;;;;;5035429;28;20469;-63
2022/05/09 14:09:22;;;;;;;6.25;2.40;;;;;;;;;;5033979;28;20030;-63
2022/05/09 14:11:59;;;;;;;3.95;2.40;;;;;;;;;;5034676;28;20022;-63
2022/05/09 14:14:42;;;;;;;7.35;2.67;;;;;;;;;;5040852;28;20102;-62
2022/05/09 14:17:13;;;;;;;4.63;2.40;;;;;;;;;;5039394;28;20032;-61
2022/05/09 14:19:40;;;;;;;5.30;1.95;;;;;;;;;;5041133;28;20065;-61
2022/05/09 14:22:09;;;;;;;5.43;2.40;;;;;;;;;;5043786;28;20082;-63
2022/05/09 14:24:36;;;;;;;6.93;2.40;;;;;;;;;;5046334;28;20032;-64
2022/05/09 14:29:51;;;;;;;6.53;2.40;;;;;;;;;;5039772;28;20413;-64
2022/05/09 14:32:36;;;;;;;7.65;2.40;;;;;;;;;;5033833;28;20025;-64
2022/05/09 14:35:02;;;;;;;6.10;2.20;;;;;;;;;;5034026;28;20040;-63
2022/05/09 14:37:32;;;;;;;7.20;2.55;;;;;;;;;;5033489;28;20025;-63
2022/05/09 14:39:59;;;;;;;6.70;2.20;;;;;;;;;;5038177;28;20413;-63
2022/05/09 14:42:31;;;;;;;7.25;2.15;;;;;;;;;;5053496;28;20029;-63
2022/05/09 14:45:03;;;;;;;3.73;2.03;;;;;;;;;;5053530;28;20513;-62
2022/05/09 14:47:31;;;;;;;5.47;2.40;;;;;;;;;;5052792;28;20497;-64
2022/05/09 14:50:07;;;;;;;3.78;2.47;;;;;;;;;;5053009;28;20041;-63
2022/05/09 14:52:40;;;;;;;4.85;2.53;;;;;;;;;;5053257;28;20078;-63
2022/05/09 14:58:37;;;;;;;8.73;2.78;;;;;;;;;;5070414;28;20038;-62
2022/05/09 15:01:12;;;;;;;6.75;2.35;;;;;;;;;;5070208;28;20052;-62
2022/05/09 15:03:40;;;;;;;4.40;2.50;;;;;;;;;;5070665;28;20034;-65
2022/05/09 15:06:06;;;;;;;6.35;2.35;;;;;;;;;;5070819;28;20032;-62
2022/05/09 15:08:33;;;;;;;5.68;2.28;;;;;;;;;;5070822;28;20021;-65
2022/05/09 15:11:02;;;;;;;7.45;2.75;;;;;;;;;;5070460;28;20040;-62
2022/05/09 15:13:28;;;;;;;5.97;2.55;;;;;;;;;;5070155;28;20067;-61
2022/05/09 15:15:55;;;;;;;5.43;2.50;;;;;;;;;;5070758;28;20699;-63
2022/05/09 15:18:22;;;;;;;6.82;2.72;;;;;;;;;;5070759;28;20276;-62
2022/05/09 15:20:49;;;;;;;6.45;2.58;;;;;;;;;;5065250;28;20058;-63
2022/05/09 15:23:15;;;;;;;5.28;3.08;;;;;;;;;;5050408;28;20420;-65
2022/05/09 15:25:49;;;;;;;8.60;2.58;;;;;;;;;;5050364;28;20024;-65
2022/05/09 15:28:15;;;;;;;6.03;2.60;;;;;;;;;;5047552;28;20401;-62
2022/05/09 15:30:41;;;;;;;6.20;2.40;;;;;;;;;;5032736;28;20057;-61
2022/05/09 15:33:08;;;;;;;5.35;2.40;;;;;;;;;;5032916;28;20033;-62
2022/05/09 15:35:34;;;;;;;4.70;2.72;;;;;;;;;;5034883;28;20090;-61
2022/05/09 15:38:07;;;;;;;4.93;2.60;;;;;;;;;;5032561;28;20098;-63
2022/05/09 15:40:34;;;;;;;6.80;2.70;;;;;;;;;;5031652;28;20057;-62
2022/05/09 15:43:02;;;;;;;6.57;2.97;;;;;;;;;;5032363;28;20025;-62
2022/05/09 15:45:29;;;;;;;4.70;2.15;;;;;;;;;;5031845;28;20060;-63
2022/05/09 15:47:55;;;;;;;7.03;2.83;;;;;;;;;;5032197;28;20440;-62
2022/05/09 15:50:21;;;;;;;5.15;2.63;;;;;;;;;;5034298;28;20378;-64
2022/05/09 15:52:47;;;;;;;5.40;2.70;;;;;;;;;;5032399;28;20025;-62
2022/05/09 15:55:14;;;;;;;5.65;2.70;;;;;;;;;;5035221;28;20057;-63
2022/05/09 15:57:41;;;;;;;7.90;2.90;;;;;;;;;;5032693;28;20022;-62
2022/05/09 16:00:09;;;;;;;4.80;2.72;;;;;;;;;;5031742;28;20045;-64
2022/05/09 16:02:38;;;;;;;6.55;2.65;;;;;;;;;;5032027;28;20113;-63
2022/05/09 16:05:05;;;;;;;5.55;2.40;;;;;;;;;;5038716;28;20057;-63
2022/05/09 16:11:23;;;;;;;6.40;2.20;;;;;;;;;;5039170;28;20738;-62
2022/05/09 16:13:15;;;;;;;5.57;2.58;;;;;;;;;;5058967;28;20194;-64
2022/05/09 16:15:41;;;;;;;6.60;2.60;;;;;;;;;;5067015;28;20025;-64
2022/05/09 16:18:28;;;;;;;5.68;2.80;;;;;;;;;;5054770;28;20366;-63
2022/05/09 16:20:54;;;;;;;6.07;2.90;;;;;;;;;;5062208;28;20392;-64
2022/05/09 16:23:21;;;;;;;5.55;2.70;;;;;;;;;;5062976;28;20036;-63
2022/05/09 16:25:48;;;;;;;6.38;2.42;;;;;;;;;;5055406;28;20461;-63
2022/05/09 16:28:16;;;;;;;5.93;2.58;;;;;;;;;;5066266;28;20400;-63
2022/05/09 16:30:42;;;;;;;5.55;2.78;;;;;;;;;;5058170;28;20047;-63
2022/05/09 16:33:08;;;;;;;10.02;3.28;;;;;;;;;;5060345;28;20099;-63
2022/05/09 16:35:34;;;;;;;7.63;2.85;;;;;;;;;;5053109;28;20032;-63
2022/05/09 16:38:00;;;;;;;7.20;3.30;;;;;;;;;;5067529;28;20027;-64
2022/05/09 16:40:29;;;;;;;15.30;7.63;;;;;;;;;;5055049;28;20135;-66
2022/05/09 16:42:55;;;;;;;3.80;2.80;;;;;;;;;;5061609;28;20025;-63
2022/05/09 16:45:22;;;;;;;6.25;2.45;;;;;;;;;;5062890;28;20479;-63
2022/05/09 16:47:49;;;;;;;5.60;2.97;;;;;;;;;;5053940;28;20025;-63
2022/05/09 16:50:17;;;;;;;6.28;3.28;;;;;;;;;;5066676;28;20021;-64
2022/05/09 16:52:43;;;;;;;7.82;3.03;;;;;;;;;;5057386;28;20411;-63
2022/05/09 16:55:10;;;;;;;6.82;2.70;;;;;;;;;;5052393;28;20037;-63
2022/05/09 16:57:36;;;;;;;4.75;2.30;;;;;;;;;;5064156;28;20029;-63
2022/05/09 17:00:04;;;;;;;8.18;2.60;;;;;;;;;;5051361;28;20056;-64
2022/05/09 17:02:30;;;;;;;6.13;3.17;;;;;;;;;;5063671;28;20447;-65
2022/05/09 17:04:56;;;;;;;7.45;2.90;;;;;;;;;;5051038;28;20601;-65
2022/05/09 17:07:22;;;;;;;4.38;2.40;;;;;;;;;;5061812;28;20040;-64
2022/05/09 17:09:48;;;;;;;5.40;2.83;;;;;;;;;;5052778;28;20409;-65
2022/05/09 17:12:17;;;;;;;4.93;2.50;;;;;;;;;;5066386;28;20617;-64
2022/05/09 17:14:43;;;;;;;4.05;2.40;;;;;;;;;;5057379;28;20024;-64
2022/05/09 17:17:09;;;;;;;6.05;2.63;;;;;;;;;;5055587;28;20025;-64
2022/05/09 17:19:35;;;;;;;5.70;2.70;;;;;;;;;;5042584;28;20065;-63
2022/05/09 17:22:01;;;;;;;7.72;2.80;;;;;;;;;;5045029;28;21153;-64
2022/05/09 17:24:29;;;;;;;8.43;2.72;;;;;;;;;;5041771;28;20405;-63
2022/05/09 17:26:56;;;;;;;5.07;2.40;;;;;;;;;;5042610;28;20018;-63
2022/05/09 17:29:23;;;;;;;5.30;2.58;;;;;;;;;;5040883;28;20033;-64
2022/05/09 17:31:49;;;;;;;7.05;2.97;;;;;;;;;;5042345;28;20051;-64
2022/05/09 17:34:17;;;;;;;5.97;2.72;;;;;;;;;;5047738;28;20408;-64
2022/05/09 17:37:28;;;;;;;4.90;2.50;;;;;;;;;;5058041;28;20016;-66
2022/05/09 17:39:32;;;;;;;8.88;2.67;;;;;;;;;;5055296;28;20396;-64
2022/05/09 17:41:58;;;;;;;3.72;2.55;;;;;;;;;;5066384;28;20494;-65
2022/05/09 17:44:24;;;;;;;3.83;2.45;;;;;;;;;;5054259;28;20025;-67
2022/05/09 17:46:54;;;;;;;6.50;2.40;;;;;;;;;;5061581;28;20029;-65
2022/05/09 17:49:21;;;;;;;7.65;3.00;;;;;;;;;;5062479;28;20025;-65
2022/05/09 17:51:47;;;;;;;6.85;2.90;;;;;;;;;;5053475;28;20025;-65
2022/05/09 17:54:14;;;;;;;8.05;3.15;;;;;;;;;;5066593;28;20024;-65
2022/05/09 17:56:41;;;;;;;7.53;3.55;;;;;;;;;;5057127;28;20023;-64
2022/05/09 17:59:11;;;;;;;12.05;4.38;;;;;;;;;;5058896;28;20037;-65
2022/05/09 18:01:39;;;;;;;9.38;4.65;;;;;;;;;;5050079;28;20520;-64
2022/05/09 18:04:05;;;;;;;12.15;5.47;;;;;;;;;;5049852;28;20033;-65
2022/05/09 18:06:32;;;;;;;9.55;4.95;;;;;;;;;;5049847;28;20167;-64
2022/05/09 18:08:58;;;;;;;15.15;4.63;;;;;;;;;;5049862;28;20098;-64
2022/05/09 18:11:25;;;;;;;14.10;5.43;;;;;;;;;;5050270;28;20591;-65
2022/05/09 18:13:54;;;;;;;14.18;5.70;;;;;;;;;;5049837;28;20025;-68
2022/05/09 18:16:21;;;;;;;12.88;5.60;;;;;;;;;;5049853;28;20021;-64
2022/05/09 18:18:49;;;;;;;11.30;6.28;;;;;;;;;;5050018;28;20044;-64
2022/05/09 18:21:18;;;;;;;13.80;5.88;;;;;;;;;;5050237;28;20102;-64
2022/05/09 18:23:54;;;;;;;15.13;6.30;;;;;;;;;;5048726;28;20815;-64
2022/05/09 18:26:20;;;;;;;11.50;5.30;;;;;;;;;;5049980;28;20112;-64
2022/05/09 18:28:47;;;;;;;10.95;5.20;;;;;;;;;;5050231;28;20029;-64
2022/05/09 18:31:15;;;;;;;10.95;5.00;;;;;;;;;;5050223;28;20033;-64
2022/05/09 18:33:41;;;;;;;14.57;4.85;;;;;;;;;;5050417;28;20053;-64
2022/05/09 18:36:08;;;;;;;13.98;5.55;;;;;;;;;;5050342;28;20029;-64
2022/05/09 18:38:37;;;;;;;15.25;5.63;;;;;;;;;;5049786;28;20041;-64
2022/05/09 18:41:06;;;;;;;17.08;5.93;;;;;;;;;;5050115;28;20415;-67
2022/05/09 18:43:33;;;;;;;11.30;6.20;;;;;;;;;;5050125;28;20409;-64
2022/05/09 18:45:59;;;;;;;13.40;6.47;;;;;;;;;;5050191;28;20484;-64
2022/05/09 18:48:25;;;;;;;12.70;5.57;;;;;;;;;;5053340;28;20035;-64
2022/05/09 18:53:37;;;;;;;11.10;5.40;;;;;;;;;;5053427;28;20044;-64
2022/05/09 18:56:03;;;;;;;12.20;5.90;;;;;;;;;;5053624;28;20025;-65
2022/05/09 18:58:30;;;;;;;14.98;5.50;;;;;;;;;;5053872;28;20021;-62
2022/05/09 19:00:56;;;;;;;11.23;5.15;;;;;;;;;;5051918;28;20412;-64
2022/05/09 19:03:22;;;;;;;11.52;5.20;;;;;;;;;;5053381;28;20078;-65
2022/05/09 19:05:50;;;;;;;11.35;5.25;;;;;;;;;;5053500;28;20086;-64
2022/05/09 19:08:36;;;;;;;9.27;4.80;;;;;;;;;;5053121;28;20025;-65
2022/05/09 19:11:05;;;;;;;9.50;5.45;;;;;;;;;;5052988;28;20380;-65
2022/05/09 19:13:33;;;;;;;10.18;5.18;;;;;;;;;;5052577;28;20112;-65
2022/05/09 19:15:59;;;;;;;11.82;4.93;;;;;;;;;;5053103;28;20025;-66
2022/05/09 19:18:27;;;;;;;9.48;5.53;;;;;;;;;;5053131;28;20033;-66
2022/05/09 19:20:53;;;;;;;9.30;5.30;;;;;;;;;;5045601;28;20065;-65
2022/05/09 19:23:20;;;;;;;12.57;5.72;;;;;;;;;;5041194;28;20096;-65
2022/05/09 19:25:50;;;;;;;12.23;6.30;;;;;;;;;;5040996;28;20182;-64
2022/05/09 19:28:17;;;;;;;13.48;6.03;;;;;;;;;;5040409;28;20025;-65
2022/05/09 19:30:46;;;;;;;14.80;5.53;;;;;;;;;;5040661;28;20384;-63
2022/05/09 19:33:13;;;;;;;8.63;4.40;;;;;;;;;;5042407;28;20057;-65
2022/05/09 19:35:40;;;;;;;11.70;5.30;;;;;;;;;;5041655;28;20028;-65
2022/05/09 19:38:06;;;;;;;12.30;4.97;;;;;;;;;;5040914;28;20155;-66
2022/05/09 19:40:34;;;;;;;8.20;4.00;;;;;;;;;;5042013;28;20077;-63
2022/05/09 19:43:02;;;;;;;8.23;4.03;;;;;;;;;;5046773;28;20021;-65
2022/05/09 19:45:49;;;;;;;9.90;4.25;;;;;;;;;;5052055;28;20040;-67
2022/05/09 19:48:16;;;;;;;10.38;4.22;;;;;;;;;;5052229;28;20029;-64
2022/05/09 19:50:47;;;;;;;9.18;4.43;;;;;;;;;;5052489;28;20036;-63
2022/05/09 19:56:00;;;;;;;14.10;3.63;;;;;;;;;;5052460;28;20581;-65
2022/05/09 19:58:26;;;;;;;11.57;4.10;;;;;;;;;;5051366;28;20040;-66
2022/05/09 20:00:52;;;;;;;8.57;4.10;;;;;;;;;;5051729;28;20032;-63
2022/05/09 20:03:19;;;;;;;7.20;3.47;;;;;;;;;;5051735;28;20025;-67
2022/05/09 20:05:45;;;;;;;12.98;4.50;;;;;;;;;;5051817;28;20059;-67
2022/05/09 20:08:12;;;;;;;8.02;4.00;;;;;;;;;;5051749;28;20042;-65
2022/05/09 20:10:38;;;;;;;8.10;4.03;;;;;;;;;;5051644;28;20103;-69
2022/05/09 20:13:07;;;;;;;8.75;4.25;;;;;;;;;;5052014;28;20025;-67
2022/05/09 20:15:35;;;;;;;8.85;4.53;;;;;;;;;;5051519;28;20024;-65
2022/05/09 20:18:01;;;;;;;11.48;4.32;;;;;;;;;;5051676;28;20037;-64
2022/05/09 20:20:27;;;;;;;8.02;4.53;;;;;;;;;;5051423;28;20037;-64
2022/05/09 20:22:54;;;;;;;9.93;4.85;;;;;;;;;;5051857;28;20021;-64
2022/05/09 20:25:21;;;;;;;10.77;4.60;;;;;;;;;;5051574;28;20032;-69
2022/05/09 20:30:31;;;;;;;7.38;4.30;;;;;;;;;;5051731;28;20044;-65
2022/05/09 20:32:57;;;;;;;9.50;4.45;;;;;;;;;;5051404;28;20021;-69
2022/05/09 20:35:23;;;;;;;8.25;4.38;;;;;;;;;;5051701;28;20035;-64
2022/05/09 20:37:56;;;;;;;8.13;4.55;;;;;;;;;;5032602;28;20087;-64
2022/05/09 20:40:33;;;;;;;11.35;4.50;;;;;;;;;;5031379;28;20404;-64
2022/05/09 20:43:04;;;;;;;7.28;3.95;;;;;;;;;;5031693;28;20048;-65
2022/05/09 20:45:30;;;;;;;6.22;3.95;;;;;;;;;;5031783;28;20061;-65
2022/05/09 20:47:56;;;;;;;7.22;4.13;;;;;;;;;;5033660;28;20025;-65
2022/05/09 20:50:22;;;;;;;4.85;3.60;;;;;;;;;;5040447;28;20017;-64
2022/05/09 20:52:48;;;;;;;9.20;4.18;;;;;;;;;;5039050;28;20473;-67
2022/05/09 20:55:16;;;;;;;5.90;4.00;;;;;;;;;;5041351;28;20064;-65